CheckWX is a tool to help pilots better visualize weather data.  It is not intended as a substitute for an official pre-flight weather briefing.

02:27:54 UTC

EBBL METAR
Kleine Brogel Air Base Airport
Kleine Brogel, Belgium
Current

33 mins ago

EBBL 200155Z AUTO 21005KT 9999 NCD 12/10 Q1021 BLU
Observed
Aug-20 @ 01:55 UTC
Wind
  • 210° at 5 KTS
Visibility
10,000+ meters
Flight Rules
VFR
Cloud Levels
  • Clear skies
Temperature
12°C / 54°F
Dewpoint
10°C / 50°F
Humidity
88%
Altimeter
30.15" Hg
Pressure
1020.92 hPa
Previous

1 hour ago

EBBL 200125Z AUTO 21004KT 9999 SCT250/// 12/09 Q1020 BLU
Observed
Aug-20 @ 01:25 UTC
Wind
  • 210° at 4 KTS
Visibility
10,000+ meters
Flight Rules
VFR
Cloud Levels
  • Scattered at 25,000' AGL
Temperature
12°C / 54°F
Dewpoint
C / 48°F
Humidity
82%
Altimeter
30.12" Hg
Pressure
1019.92 hPa
Previous

2 hours ago

EBBL 200055Z AUTO 21005KT 9999 NCD 12/09 Q1020 BLU
Observed
Aug-20 @ 00:55 UTC
Wind
  • 210° at 5 KTS
Visibility
10,000+ meters
Flight Rules
VFR
Cloud Levels
  • Clear skies
Temperature
12°C / 54°F
Dewpoint
C / 48°F
Humidity
82%
Altimeter
30.12" Hg
Pressure
1019.92 hPa